IBE326 KJFK-LEMD
Flight info
| Callsign | IBE326 |
|---|---|
| Flight time | N/A |
| Altitude | 39000 |
| Route | BETTE DCT RIFLE DCT YAHOO DCT JOBOC/M084F390 DCT 41N060W 42N050W 43N040W/M084F410 43N030W 4230N02000W DCT BANAL/N0481F410 DCT IXUVA DCT BARDI/N0491F400 M191 RIDAV |
| Aircraft | A359/H-SDE2E3GHIJ3J4J5LM1ORWXY/LB1D1 |
Departure
| Time | 2026-05-07 00:04 |
|---|---|
| Airport | John F. Kennedy International Airport (KJFK) |
Arrival
| Time | N/A |
|---|---|
| Airport | Adolfo Suárez Madrid–Barajas Airport (LEMD) |
| Time | Latitude | Longitude | Altitude | Speed | Heading |
|---|---|---|---|---|---|
| 2026-05-06 23:14 | 40.64787 | -73.79352 | 30 ft | 0 kts | 150° |
| 2026-05-06 23:14 | 40.64775 | -73.79343 | 30 ft | 0 kts | 151° |
| 2026-05-06 23:48 | 40.64780 | -73.79347 | 29 ft | 4 kts | 151° |
| 2026-05-06 23:49 | 40.64803 | -73.79364 | 28 ft | 4 kts | 151° |
| 2026-05-06 23:49 | 40.64823 | -73.79378 | 28 ft | 4 kts | 149° |
| 2026-05-06 23:49 | 40.64836 | -73.79398 | 28 ft | 4 kts | 80° |
| 2026-05-06 23:49 | 40.64826 | -73.79427 | 27 ft | 4 kts | 61° |
| 2026-05-06 23:50 | 40.64818 | -73.79447 | 28 ft | 0 kts | 61° |
| 2026-05-06 23:53 | 40.64819 | -73.79443 | 27 ft | 2 kts | 61° |
| 2026-05-06 23:53 | 40.64835 | -73.79407 | 29 ft | 8 kts | 60° |
| 2026-05-06 23:54 | 40.64868 | -73.79330 | 30 ft | 11 kts | 61° |
| 2026-05-06 23:54 | 40.64908 | -73.79233 | 30 ft | 13 kts | 61° |
| 2026-05-06 23:54 | 40.64956 | -73.79121 | 30 ft | 15 kts | 61° |
| 2026-05-06 23:54 | 40.65007 | -73.79002 | 30 ft | 12 kts | 60° |
| 2026-05-06 23:55 | 40.65056 | -73.78921 | 30 ft | 7 kts | 27° |
| 2026-05-06 23:55 | 40.65064 | -73.78919 | 30 ft | 0 kts | 11° |
| 2026-05-06 23:56 | 40.65079 | -73.78915 | 30 ft | 7 kts | 11° |
| 2026-05-06 23:56 | 40.65132 | -73.78863 | 30 ft | 13 kts | 69° |
| 2026-05-06 23:57 | 40.65158 | -73.78727 | 30 ft | 18 kts | 66° |
| 2026-05-06 23:57 | 40.65214 | -73.78591 | 33 ft | 17 kts | 60° |
| 2026-05-06 23:57 | 40.65269 | -73.78430 | 29 ft | 20 kts | 85° |
| 2026-05-06 23:57 | 40.65218 | -73.78272 | 32 ft | 19 kts | 120° |
| 2026-05-06 23:58 | 40.65146 | -73.78114 | 29 ft | 21 kts | 121° |
| 2026-05-06 23:58 | 40.65096 | -73.78007 | 29 ft | 12 kts | 120° |
| 2026-05-06 23:58 | 40.65051 | -73.77904 | 27 ft | 13 kts | 120° |
| 2026-05-06 23:58 | 40.65036 | -73.77870 | 26 ft | 0 kts | 120° |
| 2026-05-06 23:59 | 40.65034 | -73.77866 | 32 ft | 3 kts | 121° |
| 2026-05-06 23:59 | 40.65011 | -73.77815 | 30 ft | 9 kts | 121° |
| 2026-05-06 23:59 | 40.64975 | -73.77736 | 26 ft | 11 kts | 121° |
| 2026-05-06 23:59 | 40.64935 | -73.77649 | 27 ft | 12 kts | 121° |
| 2026-05-07 00:00 | 40.64911 | -73.77544 | 29 ft | 13 kts | 70° |
| 2026-05-07 00:00 | 40.64980 | -73.77462 | 31 ft | 14 kts | 37° |
| 2026-05-07 00:00 | 40.65072 | -73.77405 | 27 ft | 15 kts | 20° |
| 2026-05-07 00:00 | 40.65128 | -73.77355 | 31 ft | 14 kts | 69° |
| 2026-05-07 00:01 | 40.65076 | -73.77196 | 27 ft | 15 kts | 121° |
| 2026-05-07 00:01 | 40.65021 | -73.77075 | 27 ft | 16 kts | 121° |
| 2026-05-07 00:01 | 40.64960 | -73.76943 | 27 ft | 18 kts | 121° |
| 2026-05-07 00:01 | 40.64895 | -73.76801 | 28 ft | 19 kts | 121° |
| 2026-05-07 00:02 | 40.64913 | -73.76664 | 28 ft | 17 kts | 33° |
| 2026-05-07 00:02 | 40.65019 | -73.76584 | 27 ft | 18 kts | 28° |
| 2026-05-07 00:02 | 40.65097 | -73.76486 | 28 ft | 12 kts | 89° |
| 2026-05-07 00:02 | 40.65061 | -73.76392 | 29 ft | 12 kts | 122° |
| 2026-05-07 00:03 | 40.65002 | -73.76370 | 29 ft | 9 kts | 203° |
| 2026-05-07 00:03 | 40.64988 | -73.76381 | 29 ft | 0 kts | 211° |
| 2026-05-07 00:03 | 40.64984 | -73.76384 | 29 ft | 6 kts | 211° |
| 2026-05-07 00:03 | 40.64766 | -73.76553 | 28 ft | 70 kts | 210° |
| 2026-05-07 00:04 | 40.64164 | -73.77023 | 28 ft | 128 kts | 211° |
| 2026-05-07 00:04 | 40.63256 | -73.77747 | 123 ft | 169 kts | 211° |
| 2026-05-07 00:04 | 40.62218 | -73.78586 | 627 ft | 180 kts | 210° |
| 2026-05-07 00:04 | 40.61110 | -73.79461 | 1268 ft | 190 kts | 213° |
| 2026-05-07 00:05 | 40.59962 | -73.80352 | 1852 ft | 199 kts | 214° |
| 2026-05-07 00:05 | 40.58732 | -73.81304 | 2401 ft | 211 kts | 215° |
| 2026-05-07 00:05 | 40.57435 | -73.82313 | 2977 ft | 222 kts | 215° |
| 2026-05-07 00:05 | 40.56008 | -73.83254 | 3460 ft | 240 kts | 204° |
| 2026-05-07 00:06 | 40.54303 | -73.83551 | 4073 ft | 258 kts | 180° |
| 2026-05-07 00:06 | 40.52585 | -73.82687 | 4776 ft | 277 kts | 148° |
| 2026-05-07 00:06 | 40.51404 | -73.80623 | 5461 ft | 294 kts | 114° |
| 2026-05-07 00:06 | 40.50965 | -73.77959 | 6142 ft | 303 kts | 100° |
| 2026-05-07 00:07 | 40.50492 | -73.75245 | 6803 ft | 307 kts | 108° |
| 2026-05-07 00:07 | 40.50041 | -73.72471 | 7490 ft | 315 kts | 99° |
| 2026-05-07 00:07 | 40.49964 | -73.69567 | 8235 ft | 322 kts | 89° |
| 2026-05-07 00:07 | 40.50162 | -73.66613 | 8954 ft | 328 kts | 83° |
| 2026-05-07 00:08 | 40.50477 | -73.63647 | 9672 ft | 333 kts | 82° |
| 2026-05-07 00:08 | 40.50818 | -73.60619 | 10388 ft | 337 kts | 82° |
| 2026-05-07 00:08 | 40.51175 | -73.57502 | 10833 ft | 353 kts | 82° |
| 2026-05-07 00:08 | 40.51553 | -73.54226 | 11160 ft | 372 kts | 82° |
| 2026-05-07 00:09 | 40.51949 | -73.50784 | 11484 ft | 389 kts | 82° |
| 2026-05-07 00:09 | 40.52353 | -73.47177 | 11813 ft | 406 kts | 83° |
| 2026-05-07 00:09 | 40.52693 | -73.43427 | 12125 ft | 421 kts | 85° |
| 2026-05-07 00:09 | 40.52990 | -73.39558 | 12615 ft | 429 kts | 86° |
| 2026-05-07 00:10 | 40.53271 | -73.35673 | 13171 ft | 435 kts | 86° |
| 2026-05-07 00:10 | 40.53563 | -73.31675 | 13713 ft | 441 kts | 86° |
| 2026-05-07 00:10 | 40.53866 | -73.27636 | 14224 ft | 445 kts | 86° |
| 2026-05-07 00:10 | 40.54177 | -73.23583 | 14828 ft | 447 kts | 85° |
| 2026-05-07 00:11 | 40.54495 | -73.19502 | 15458 ft | 449 kts | 85° |
| 2026-05-07 00:11 | 40.54818 | -73.15391 | 16042 ft | 453 kts | 85° |
| 2026-05-07 00:11 | 40.55142 | -73.11252 | 16620 ft | 457 kts | 85° |
| 2026-05-07 00:11 | 40.55469 | -73.07074 | 17228 ft | 460 kts | 85° |
| 2026-05-07 00:12 | 40.55867 | -73.02941 | 17804 ft | 464 kts | 78° |
| 2026-05-07 00:12 | 40.56727 | -72.98839 | 18356 ft | 467 kts | 71° |
| 2026-05-07 00:12 | 40.57805 | -72.94786 | 18766 ft | 472 kts | 68° |
| 2026-05-07 00:12 | 40.59007 | -72.90730 | 19217 ft | 477 kts | 66° |
| 2026-05-07 00:13 | 40.60265 | -72.86674 | 19663 ft | 482 kts | 65° |
| 2026-05-07 00:13 | 40.61552 | -72.82573 | 20095 ft | 487 kts | 65° |
| 2026-05-07 00:13 | 40.62849 | -72.78428 | 20555 ft | 493 kts | 65° |
| 2026-05-07 00:13 | 40.64152 | -72.74221 | 20998 ft | 498 kts | 65° |
| 2026-05-07 00:14 | 40.65014 | -72.71414 | 21299 ft | 501 kts | 65° |
| 2026-05-07 00:14 | 40.66319 | -72.67134 | 21757 ft | 506 kts | 65° |
| 2026-05-07 00:14 | 40.67639 | -72.62782 | 22188 ft | 514 kts | 65° |
| 2026-05-07 00:14 | 40.68811 | -72.58292 | 22572 ft | 522 kts | 73° |
| 2026-05-07 00:15 | 40.69666 | -72.53623 | 23148 ft | 525 kts | 76° |
| 2026-05-07 00:15 | 40.70431 | -72.48885 | 23575 ft | 531 kts | 77° |
| 2026-05-07 00:15 | 40.71138 | -72.44127 | 23976 ft | 535 kts | 78° |
| 2026-05-07 00:15 | 40.71830 | -72.39274 | 24438 ft | 539 kts | 78° |
| 2026-05-07 00:16 | 40.72515 | -72.34403 | 24878 ft | 542 kts | 78° |
| 2026-05-07 00:16 | 40.73207 | -72.29490 | 25305 ft | 546 kts | 78° |
| 2026-05-07 00:16 | 40.73905 | -72.24553 | 25725 ft | 549 kts | 78° |
| 2026-05-07 00:16 | 40.74610 | -72.19593 | 26237 ft | 550 kts | 78° |
| 2026-05-07 00:17 | 40.75320 | -72.14614 | 26644 ft | 554 kts | 78° |
| 2026-05-07 00:17 | 40.76027 | -72.09650 | 27042 ft | 558 kts | 78° |
| 2026-05-07 00:17 | 40.76745 | -72.04604 | 27444 ft | 561 kts | 78° |
| 2026-05-07 00:17 | 40.77466 | -71.99521 | 27878 ft | 565 kts | 78° |
| 2026-05-07 00:18 | 40.78191 | -71.94391 | 28197 ft | 570 kts | 78° |
| 2026-05-07 00:18 | 40.78917 | -71.89233 | 28584 ft | 573 kts | 78° |
| 2026-05-07 00:18 | 40.79646 | -71.84030 | 29076 ft | 575 kts | 78° |
| 2026-05-07 00:18 | 40.80363 | -71.78894 | 29426 ft | 578 kts | 79° |
| 2026-05-07 00:19 | 40.81091 | -71.73664 | 29773 ft | 582 kts | 79° |
| 2026-05-07 00:19 | 40.81824 | -71.68383 | 30090 ft | 585 kts | 79° |
| 2026-05-07 00:19 | 40.82558 | -71.63078 | 30375 ft | 588 kts | 79° |
| 2026-05-07 00:19 | 40.83291 | -71.57753 | 30674 ft | 590 kts | 78° |
| 2026-05-07 00:20 | 40.84026 | -71.52400 | 30993 ft | 591 kts | 79° |
| 2026-05-07 00:20 | 40.84756 | -71.47066 | 31330 ft | 592 kts | 79° |